createdAt,value
2018-05-27T00:00:38.195Z,0.00
2018-05-27T00:01:38.137Z,0.00
2018-05-27T00:02:38.137Z,0.00
2018-05-27T00:03:38.089Z,0.00
2018-05-27T00:04:38.623Z,0.00
2018-05-27T00:05:38.002Z,0.00
2018-05-27T00:06:38.026Z,0.00
2018-05-27T00:07:37.939Z,0.00
2018-05-27T00:08:37.910Z,0.00
2018-05-27T00:09:37.892Z,0.00
2018-05-27T00:10:37.872Z,0.00
2018-05-27T00:11:37.821Z,0.00
2018-05-27T00:12:37.765Z,0.00
2018-05-27T00:13:37.741Z,0.00
2018-05-27T00:14:37.691Z,0.00
2018-05-27T00:15:37.667Z,0.00
2018-05-27T00:16:37.636Z,0.00
2018-05-27T00:17:37.576Z,0.00
2018-05-27T00:18:37.563Z,0.00
2018-05-27T00:19:37.513Z,0.00
2018-05-27T00:20:37.472Z,0.00
2018-05-27T00:21:37.482Z,0.00
2018-05-27T00:22:37.406Z,0.00
2018-05-27T00:23:37.391Z,0.00
2018-05-27T00:24:37.342Z,0.00
2018-05-27T00:25:37.314Z,0.00
2018-05-27T00:26:37.264Z,0.00
2018-05-27T00:27:37.230Z,0.00
2018-05-27T00:28:37.201Z,0.00
2018-05-27T00:29:37.158Z,0.00
2018-05-27T00:30:37.123Z,0.00
2018-05-27T00:31:37.076Z,0.00
2018-05-27T00:32:37.055Z,0.00
2018-05-27T00:33:37.029Z,0.00
2018-05-27T00:34:37.015Z,0.00
2018-05-27T00:35:36.977Z,0.00
2018-05-27T00:36:36.928Z,0.00
2018-05-27T00:37:36.881Z,0.00
2018-05-27T00:38:36.871Z,0.00
2018-05-27T00:39:36.823Z,0.00
2018-05-27T00:40:36.817Z,0.00
2018-05-27T00:41:36.751Z,0.00
2018-05-27T00:42:36.703Z,0.00
2018-05-27T00:43:36.657Z,0.00
2018-05-27T00:44:36.617Z,0.00
2018-05-27T00:45:36.585Z,0.00
2018-05-27T00:46:36.551Z,0.00
2018-05-27T00:47:36.537Z,0.00
2018-05-27T00:48:36.489Z,0.00
2018-05-27T00:49:36.446Z,0.00
2018-05-27T00:50:36.432Z,0.00
2018-05-27T00:51:36.397Z,0.00
2018-05-27T00:52:36.384Z,0.00
2018-05-27T00:53:36.304Z,0.00
2018-05-27T00:54:36.261Z,0.00
2018-05-27T00:55:36.326Z,0.00
2018-05-27T00:56:36.219Z,0.00
2018-05-27T00:57:36.197Z,0.00
2018-05-27T00:58:36.132Z,0.00
2018-05-27T00:59:36.099Z,0.00
2018-05-27T01:00:36.064Z,0.00
2018-05-27T01:01:36.024Z,0.00
2018-05-27T01:02:35.977Z,0.00
2018-05-27T01:03:35.955Z,0.00
2018-05-27T01:04:35.939Z,0.00
2018-05-27T01:05:35.923Z,0.00
2018-05-27T01:06:35.853Z,0.00
2018-05-27T01:07:35.820Z,0.00
2018-05-27T01:08:35.769Z,0.00
2018-05-27T01:09:35.782Z,0.00
2018-05-27T01:10:35.700Z,0.00
2018-05-27T01:11:35.676Z,0.00
2018-05-27T01:12:35.620Z,0.00
2018-05-27T01:13:35.601Z,0.00
2018-05-27T01:14:35.553Z,0.00
2018-05-27T01:15:35.552Z,0.00
2018-05-27T01:16:35.507Z,0.00
2018-05-27T01:17:35.437Z,0.00
2018-05-27T01:18:35.428Z,0.00
2018-05-27T01:19:35.373Z,0.00
2018-05-27T01:20:35.335Z,0.00
2018-05-27T01:21:35.297Z,0.00
2018-05-27T01:22:35.290Z,0.00
2018-05-27T01:23:35.363Z,0.00
2018-05-27T01:24:35.187Z,0.00
2018-05-27T01:25:35.169Z,0.00
2018-05-27T01:26:35.119Z,0.00
2018-05-27T01:27:35.100Z,0.00
2018-05-27T01:28:35.060Z,0.00
2018-05-27T01:29:35.007Z,0.00
2018-05-27T01:30:34.967Z,0.00
2018-05-27T01:31:34.939Z,0.00
2018-05-27T01:32:34.905Z,0.00
2018-05-27T01:33:34.916Z,0.00
2018-05-27T01:34:34.856Z,0.00
2018-05-27T01:35:34.806Z,0.00
2018-05-27T01:36:34.753Z,0.00
2018-05-27T01:37:34.726Z,0.00
2018-05-27T01:38:34.682Z,0.00
2018-05-27T01:39:34.685Z,0.00
2018-05-27T01:40:34.619Z,0.00
2018-05-27T01:41:34.580Z,0.00
2018-05-27T01:42:34.576Z,0.00
2018-05-27T01:43:34.524Z,0.00
2018-05-27T01:44:34.505Z,0.00
2018-05-27T01:45:34.441Z,0.00
2018-05-27T01:46:34.404Z,0.00
2018-05-27T01:47:34.414Z,0.00
2018-05-27T01:48:34.345Z,0.00
2018-05-27T01:49:34.288Z,0.00
2018-05-27T01:50:34.263Z,0.00
2018-05-27T01:51:34.228Z,0.00
2018-05-27T01:52:34.197Z,0.00
2018-05-27T01:53:34.160Z,0.00
2018-05-27T01:54:34.120Z,0.00
2018-05-27T01:55:34.080Z,0.00
2018-05-27T01:56:34.044Z,0.00
2018-05-27T01:57:34.043Z,0.00
2018-05-27T01:58:33.972Z,0.00
2018-05-27T01:59:33.931Z,0.00
2018-05-27T02:00:33.893Z,0.00
2018-05-27T02:01:33.877Z,0.00
2018-05-27T02:02:33.815Z,0.00
2018-05-27T02:03:33.792Z,0.00
2018-05-27T02:04:33.781Z,0.00
2018-05-27T02:05:33.745Z,0.00
2018-05-27T02:06:33.677Z,0.00
2018-05-27T02:07:33.643Z,0.00
2018-05-27T02:08:33.611Z,0.00
2018-05-27T02:09:33.599Z,0.00
2018-05-27T02:10:33.528Z,0.00
2018-05-27T02:11:33.503Z,0.00
2018-05-27T02:12:33.463Z,0.00
2018-05-27T02:13:33.432Z,0.00
2018-05-27T02:14:33.384Z,0.00
2018-05-27T02:15:33.393Z,0.00
2018-05-27T02:16:33.361Z,0.00
2018-05-27T02:17:33.285Z,0.00
2018-05-27T02:18:33.280Z,0.00
2018-05-27T02:19:33.259Z,0.00
2018-05-27T02:20:33.200Z,0.00
2018-05-27T02:21:33.136Z,0.00
2018-05-27T02:22:33.096Z,0.00
2018-05-27T02:23:33.094Z,0.00
2018-05-27T02:24:33.032Z,0.00
2018-05-27T02:25:32.990Z,0.00
2018-05-27T02:26:32.968Z,0.00
2018-05-27T02:27:32.920Z,0.00
2018-05-27T02:28:32.908Z,4.00
2018-05-27T02:29:32.856Z,4.00
2018-05-27T02:30:32.827Z,4.00
2018-05-27T02:31:32.807Z,4.00
2018-05-27T02:32:32.743Z,4.00
2018-05-27T02:33:32.728Z,4.00
2018-05-27T02:34:32.695Z,4.00
2018-05-27T02:35:32.640Z,4.00
2018-05-27T02:36:32.609Z,4.00
2018-05-27T02:37:32.582Z,8.00
2018-05-27T02:38:32.526Z,8.00
2018-05-27T02:39:32.495Z,12.00
2018-05-27T02:40:32.462Z,12.00
2018-05-27T02:41:32.438Z,12.00
2018-05-27T02:42:32.395Z,12.00
2018-05-27T02:43:32.354Z,16.00
2018-05-27T02:44:32.337Z,20.00
2018-05-27T02:45:32.291Z,20.00
2018-05-27T02:46:32.256Z,28.00
2018-05-27T02:47:32.231Z,28.00
2018-05-27T02:48:32.193Z,32.00
2018-05-27T02:49:32.148Z,36.00
2018-05-27T02:50:32.119Z,44.00
2018-05-27T02:51:32.057Z,48.00
2018-05-27T02:52:32.027Z,52.00
2018-05-27T02:53:32.059Z,60.00
2018-05-27T02:54:32.000Z,68.00
2018-05-27T02:55:31.927Z,76.00
2018-05-27T02:56:31.885Z,84.00
2018-05-27T02:57:31.892Z,96.00
2018-05-27T02:58:31.836Z,104.00
2018-05-27T02:59:31.775Z,116.00
2018-05-27T03:00:31.763Z,128.00
2018-05-27T03:01:31.701Z,140.00
2018-05-27T03:02:31.696Z,160.00
2018-05-27T03:03:31.627Z,176.00
2018-05-27T03:04:31.608Z,192.00
2018-05-27T03:05:31.566Z,212.00
2018-05-27T03:06:31.534Z,236.00
2018-05-27T03:07:31.492Z,256.00
2018-05-27T03:08:31.463Z,276.00
2018-05-27T03:09:31.475Z,300.00
2018-05-27T03:10:31.392Z,320.00
2018-05-27T03:11:31.389Z,348.00
2018-05-27T03:12:31.309Z,380.00
2018-05-27T03:13:31.290Z,408.00
2018-05-27T03:14:31.239Z,444.00
2018-05-27T03:15:31.225Z,480.00
2018-05-27T03:16:31.176Z,520.00
2018-05-27T03:17:31.167Z,564.00
2018-05-27T03:18:31.112Z,612.00
2018-05-27T03:19:31.070Z,656.00
2018-05-27T03:20:31.060Z,700.00
2018-05-27T03:21:31.006Z,740.00
2018-05-27T03:22:30.993Z,772.00
2018-05-27T03:23:30.929Z,804.00
2018-05-27T03:24:30.902Z,848.00
2018-05-27T03:25:30.854Z,884.00
2018-05-27T03:26:30.833Z,928.00
2018-05-27T03:27:30.784Z,968.00
2018-05-27T03:28:30.769Z,1012.00
2018-05-27T03:29:30.733Z,1056.00
2018-05-27T03:30:30.674Z,1108.00
2018-05-27T03:31:30.679Z,1160.00
2018-05-27T03:32:30.605Z,1224.00
2018-05-27T03:33:30.595Z,1284.00
2018-05-27T03:34:30.547Z,1332.00
2018-05-27T03:35:30.516Z,1380.00
2018-05-27T03:36:30.508Z,1448.00
2018-05-27T03:37:30.418Z,1512.00
2018-05-27T03:38:30.409Z,1584.00
2018-05-27T03:39:30.385Z,1676.00
2018-05-27T03:40:30.327Z,1792.00
2018-05-27T03:41:30.299Z,1900.00
2018-05-27T03:42:30.258Z,2028.00
2018-05-27T03:43:30.244Z,2156.00
2018-05-27T03:44:30.179Z,2300.00
2018-05-27T03:45:30.174Z,2440.00
2018-05-27T03:46:30.124Z,2588.00
2018-05-27T03:47:30.073Z,2740.00
2018-05-27T03:48:30.077Z,2880.00
2018-05-27T03:49:30.014Z,2988.00
2018-05-27T03:50:29.980Z,3060.00
2018-05-27T03:51:29.948Z,3116.00
2018-05-27T03:52:29.912Z,3144.00
2018-05-27T03:53:29.907Z,3184.00
2018-05-27T03:54:29.833Z,3208.00
2018-05-27T03:55:29.801Z,3228.00
2018-05-27T03:56:29.754Z,3260.00
2018-05-27T03:57:29.743Z,3308.00
2018-05-27T03:58:29.696Z,3288.00
2018-05-27T03:59:29.655Z,3272.00
2018-05-27T04:00:29.633Z,3268.00
2018-05-27T04:01:29.603Z,3236.00
2018-05-27T04:02:29.570Z,3132.00
2018-05-27T04:03:29.519Z,3028.00
2018-05-27T04:04:29.482Z,2948.00
2018-05-27T04:05:29.453Z,2836.00
2018-05-27T04:06:29.426Z,2732.00
2018-05-27T04:07:29.377Z,2648.00
2018-05-27T04:08:29.350Z,2564.00
2018-05-27T04:09:29.315Z,2456.00
2018-05-27T04:10:29.263Z,2344.00
2018-05-27T04:11:29.255Z,2236.00
2018-05-27T04:12:29.260Z,2164.00
2018-05-27T04:13:29.207Z,2136.00
2018-05-27T04:14:29.191Z,2144.00
2018-05-27T04:15:29.105Z,2176.00
2018-05-27T04:16:29.065Z,2248.00
2018-05-27T04:17:29.061Z,2344.00
2018-05-27T04:18:29.034Z,2452.00
2018-05-27T04:19:28.965Z,2568.00
2018-05-27T04:20:28.945Z,2660.00
2018-05-27T04:21:28.894Z,2740.00
2018-05-27T04:22:28.880Z,2796.00
2018-05-27T04:23:28.827Z,2840.00
2018-05-27T04:24:28.821Z,2872.00
2018-05-27T04:25:28.759Z,2932.00
2018-05-27T04:26:28.762Z,2972.00
2018-05-27T04:27:28.702Z,2976.00
2018-05-27T04:28:28.677Z,2976.00
2018-05-27T04:29:28.621Z,2996.00
2018-05-27T04:30:28.587Z,3028.00
2018-05-27T04:31:28.545Z,3096.00
2018-05-27T04:32:28.528Z,3228.00
2018-05-27T04:33:28.474Z,3336.00
2018-05-27T04:34:28.465Z,3436.00
2018-05-27T04:35:28.410Z,3520.00
2018-05-27T04:36:28.385Z,3576.00
2018-05-27T04:37:28.358Z,3576.00
2018-05-27T04:38:28.327Z,3524.00
2018-05-27T04:39:28.284Z,3412.00
2018-05-27T04:40:28.248Z,3300.00
2018-05-27T04:41:28.239Z,3224.00
2018-05-27T04:42:28.199Z,3160.00
2018-05-27T04:43:28.220Z,3136.00
2018-05-27T04:44:28.104Z,3176.00
2018-05-27T04:45:28.145Z,3260.00
2018-05-27T04:46:28.031Z,3384.00
2018-05-27T04:47:28.010Z,3524.00
2018-05-27T04:48:27.963Z,3680.00
2018-05-27T04:49:27.945Z,3800.00
2018-05-27T04:50:27.929Z,3896.00
2018-05-27T04:51:27.885Z,3944.00
2018-05-27T04:52:27.846Z,3868.00
2018-05-27T04:53:27.836Z,3856.00
2018-05-27T04:54:27.830Z,3908.00
2018-05-27T04:55:27.788Z,3928.00
2018-05-27T04:56:27.725Z,3948.00
2018-05-27T04:57:27.684Z,4040.00
2018-05-27T04:58:27.635Z,4128.00
2018-05-27T04:59:27.626Z,4200.00
2018-05-27T05:00:27.593Z,4228.00
2018-05-27T05:01:27.553Z,4236.00
2018-05-27T05:02:27.560Z,4272.00
2018-05-27T05:03:27.497Z,4364.00
2018-05-27T05:04:27.419Z,4468.00
2018-05-27T05:05:27.395Z,4524.00
2018-05-27T05:06:27.349Z,4556.00
2018-05-27T05:07:27.323Z,4612.00
2018-05-27T05:08:27.293Z,4676.00
2018-05-27T05:09:27.289Z,4732.00
2018-05-27T05:10:27.235Z,4780.00
2018-05-27T05:11:27.191Z,4828.00
2018-05-27T05:12:27.163Z,4924.00
2018-05-27T05:13:27.151Z,5052.00
2018-05-27T05:14:27.101Z,5152.00
2018-05-27T05:15:27.062Z,5288.00
2018-05-27T05:16:27.030Z,5516.00
2018-05-27T05:17:27.027Z,5772.00
2018-05-27T05:18:26.949Z,6028.00
2018-05-27T05:19:26.904Z,6224.00
2018-05-27T05:20:26.905Z,6420.00
2018-05-27T05:21:26.849Z,6624.00
2018-05-27T05:22:26.836Z,6800.00
2018-05-27T05:23:26.795Z,6964.00
2018-05-27T05:24:26.755Z,7184.00
2018-05-27T05:25:26.733Z,7420.00
2018-05-27T05:26:26.712Z,7648.00
2018-05-27T05:27:26.683Z,7848.00
2018-05-27T05:28:26.643Z,8036.00
2018-05-27T05:29:26.620Z,8200.00
2018-05-27T05:30:26.557Z,8448.00
2018-05-27T05:31:26.560Z,8796.00
2018-05-27T05:32:26.489Z,9184.00
2018-05-27T05:33:26.464Z,9508.00
2018-05-27T05:34:26.422Z,9696.00
2018-05-27T05:35:26.396Z,9792.00
2018-05-27T05:36:26.406Z,9924.00
2018-05-27T05:37:26.332Z,10264.00
2018-05-27T05:38:26.309Z,10636.00
2018-05-27T05:39:26.259Z,10960.00
2018-05-27T05:40:26.219Z,11208.00
2018-05-27T05:41:26.211Z,11404.00
2018-05-27T05:42:26.165Z,11756.00
2018-05-27T05:43:26.123Z,12140.00
2018-05-27T05:44:26.138Z,12620.00
2018-05-27T05:45:26.055Z,13116.00
2018-05-27T05:46:26.049Z,13616.00
2018-05-27T05:47:26.001Z,13912.00
2018-05-27T05:48:25.991Z,14044.00
2018-05-27T05:49:25.970Z,14148.00
2018-05-27T05:50:25.908Z,14332.00
2018-05-27T05:51:25.869Z,14708.00
2018-05-27T05:52:25.846Z,15092.00
2018-05-27T05:53:25.797Z,15540.00
2018-05-27T05:54:25.781Z,15972.00
2018-05-27T05:55:25.753Z,16336.00
2018-05-27T05:56:25.721Z,16608.00
2018-05-27T05:57:25.689Z,16852.00
2018-05-27T05:58:25.670Z,17076.00
2018-05-27T05:59:25.600Z,17304.00
2018-05-27T06:00:25.580Z,17832.00
2018-05-27T06:01:26.238Z,18592.00
2018-05-27T06:02:25.520Z,19392.00
2018-05-27T06:03:25.488Z,19776.00
2018-05-27T06:04:25.468Z,20448.00
2018-05-27T06:05:25.415Z,20928.00
2018-05-27T06:06:25.375Z,21408.00
2018-05-27T06:07:25.359Z,21760.00
2018-05-27T06:08:25.316Z,22144.00
2018-05-27T06:09:25.292Z,22432.00
2018-05-27T06:10:25.257Z,22752.00
2018-05-27T06:11:25.268Z,23168.00
2018-05-27T06:12:25.205Z,23808.00
2018-05-27T06:13:25.157Z,24640.00
2018-05-27T06:14:25.133Z,25696.00
2018-05-27T06:15:25.129Z,28704.00
2018-05-27T06:16:25.081Z,29408.00
2018-05-27T06:17:25.046Z,27552.00
2018-05-27T06:18:24.996Z,31808.00
2018-05-27T06:19:24.963Z,35808.00
2018-05-27T06:20:24.958Z,37312.00
2018-05-27T06:21:25.001Z,30208.00
2018-05-27T06:22:24.876Z,28672.00
2018-05-27T06:23:24.844Z,30976.00
2018-05-27T06:24:24.816Z,33120.00
2018-05-27T06:25:24.833Z,33568.00
2018-05-27T06:26:24.762Z,35104.00
2018-05-27T06:27:24.714Z,35232.00
2018-05-27T06:28:24.704Z,33888.00
2018-05-27T06:29:24.668Z,33376.00
2018-05-27T06:30:24.656Z,33344.00
2018-05-27T06:31:24.610Z,33600.00
2018-05-27T06:32:24.572Z,33728.00
2018-05-27T06:33:24.558Z,33696.00
2018-05-27T06:34:24.565Z,33760.00
2018-05-27T06:35:24.476Z,33472.00
2018-05-27T06:36:24.452Z,33152.00
2018-05-27T06:37:24.451Z,33056.00
2018-05-27T06:38:24.392Z,32992.00
2018-05-27T06:39:24.362Z,33088.00
2018-05-27T06:40:24.376Z,32352.00
2018-05-27T06:41:24.322Z,31776.00
2018-05-27T06:42:24.294Z,31648.00
2018-05-27T06:43:24.260Z,32320.00
2018-05-27T06:44:24.232Z,32704.00
2018-05-27T06:45:24.204Z,32896.00
2018-05-27T06:46:24.178Z,33280.00
2018-05-27T06:47:24.134Z,33184.00
2018-05-27T06:48:24.116Z,33088.00
2018-05-27T06:49:24.107Z,33984.00
2018-05-27T06:50:24.053Z,36128.00
2018-05-27T06:51:24.019Z,40928.00
2018-05-27T06:52:24.017Z,51552.00
2018-05-27T06:53:23.974Z,57472.00
2018-05-27T06:54:23.937Z,59008.00
2018-05-27T06:55:23.922Z,70560.00
2018-05-27T06:56:23.873Z,72928.00
2018-05-27T06:57:23.855Z,76640.00
2018-05-27T06:58:23.850Z,70016.00
2018-05-27T06:59:23.786Z,75680.00
2018-05-27T07:00:23.752Z,60864.00
2018-05-27T07:01:23.751Z,42304.00
2018-05-27T07:02:23.700Z,62944.00
2018-05-27T07:03:23.696Z,43456.00
2018-05-27T07:04:23.687Z,50880.00
2018-05-27T07:05:23.636Z,39616.00
2018-05-27T07:06:23.603Z,40416.00
2018-05-27T07:07:23.571Z,35776.00
2018-05-27T07:08:23.556Z,34432.00
2018-05-27T07:09:23.521Z,34464.00
2018-05-27T07:10:23.512Z,35552.00
2018-05-27T07:11:23.475Z,37120.00
2018-05-27T07:12:23.442Z,38720.00
2018-05-27T07:13:23.423Z,40512.00
2018-05-27T07:14:23.413Z,41792.00
2018-05-27T07:15:23.374Z,41856.00
2018-05-27T07:16:23.349Z,43200.00
2018-05-27T07:17:23.330Z,43008.00
2018-05-27T07:18:23.295Z,43328.00
2018-05-27T07:19:23.299Z,51104.00
2018-05-27T07:20:23.292Z,45472.00
2018-05-27T07:21:23.253Z,48352.00
2018-05-27T07:22:23.207Z,59200.00
2018-05-27T07:23:23.175Z,69504.00
2018-05-27T07:24:23.182Z,79040.00
2018-05-27T07:25:23.141Z,75168.00
2018-05-27T07:26:23.116Z,82016.00
2018-05-27T07:27:23.070Z,66944.00
2018-05-27T07:28:23.084Z,81760.00
2018-05-27T07:29:23.040Z,76928.00
2018-05-27T07:30:23.021Z,56736.00
2018-05-27T07:31:22.977Z,80160.00
2018-05-27T07:32:23.001Z,83232.00
2018-05-27T07:33:22.951Z,87360.00
2018-05-27T07:34:22.928Z,85728.00
2018-05-27T07:35:22.897Z,82432.00
2018-05-27T07:36:22.868Z,78176.00
2018-05-27T07:37:22.843Z,63296.00
2018-05-27T07:38:22.828Z,74848.00
2018-05-27T07:39:22.829Z,78560.00
2018-05-27T07:40:22.771Z,75616.00
2018-05-27T07:41:22.775Z,72704.00
2018-05-27T07:42:22.740Z,76000.00
2018-05-27T07:43:22.714Z,74112.00
2018-05-27T07:44:22.695Z,76608.00
2018-05-27T07:45:22.697Z,70592.00
2018-05-27T07:46:22.664Z,73888.00
2018-05-27T07:47:22.631Z,74784.00
2018-05-27T07:48:22.616Z,74112.00
2018-05-27T07:49:22.588Z,76832.00
2018-05-27T07:50:22.571Z,64576.00
2018-05-27T07:51:22.551Z,73280.00
2018-05-27T07:52:22.508Z,80064.00
2018-05-27T07:53:22.500Z,76448.00
2018-05-27T07:54:22.505Z,75392.00
2018-05-27T07:55:22.488Z,79136.00
2018-05-27T07:56:22.454Z,81568.00
2018-05-27T07:57:22.427Z,80896.00
2018-05-27T07:58:22.484Z,81056.00
2018-05-27T07:59:22.376Z,82464.00
2018-05-27T08:00:22.369Z,83584.00
2018-05-27T08:01:22.345Z,86464.00
2018-05-27T08:02:22.344Z,91136.00
2018-05-27T08:03:22.388Z,91904.00
2018-05-27T08:04:22.281Z,93984.00
2018-05-27T08:05:22.275Z,97216.00
2018-05-27T08:06:22.270Z,99296.00
2018-05-27T08:07:22.224Z,100256.00
2018-05-27T08:08:22.225Z,97664.00
2018-05-27T08:09:22.204Z,92992.00
2018-05-27T08:10:22.167Z,91648.00
2018-05-27T08:11:22.178Z,93952.00
2018-05-27T08:12:22.165Z,93120.00
2018-05-27T08:13:22.126Z,90048.00
2018-05-27T08:14:22.104Z,91168.00
2018-05-27T08:15:22.077Z,93216.00
2018-05-27T08:16:22.066Z,94400.00
2018-05-27T08:17:22.045Z,98208.00
2018-05-27T08:18:22.024Z,98016.00
2018-05-27T08:19:22.011Z,96800.00
2018-05-27T08:20:21.995Z,95680.00
2018-05-27T08:21:21.975Z,91680.00
2018-05-27T08:22:21.985Z,86080.00
2018-05-27T08:23:21.947Z,85888.00
2018-05-27T08:24:21.939Z,90240.00
2018-05-27T08:25:21.910Z,92608.00
2018-05-27T08:26:21.904Z,63392.00
2018-05-27T08:27:21.884Z,87712.00
2018-05-27T08:28:21.872Z,70880.00
2018-05-27T08:29:21.833Z,86720.00
2018-05-27T08:30:21.824Z,84320.00
2018-05-27T08:31:21.806Z,85600.00
2018-05-27T08:32:21.797Z,83904.00
2018-05-27T08:33:21.774Z,50304.00
2018-05-27T08:34:21.762Z,50496.00
2018-05-27T08:35:21.728Z,48256.00
2018-05-27T08:36:21.728Z,74400.00
2018-05-27T08:37:21.708Z,75936.00
2018-05-27T08:38:21.688Z,72192.00
2018-05-27T08:39:21.679Z,71584.00
2018-05-27T08:40:21.662Z,72128.00
2018-05-27T08:41:21.630Z,47104.00
2018-05-27T08:42:21.644Z,77600.00
2018-05-27T08:43:21.663Z,54496.00
2018-05-27T08:44:21.577Z,80128.00
2018-05-27T08:45:21.558Z,104448.00
2018-05-27T08:46:21.553Z,106240.00
2018-05-27T08:47:21.516Z,84480.00
2018-05-27T08:48:21.524Z,106112.00
2018-05-27T08:49:21.492Z,68736.00
2018-05-27T09:06:06.963Z,46720.00
2018-05-27T09:06:45.200Z,35552.00
2018-05-27T09:08:38.447Z,85344.00
2018-05-27T09:09:38.237Z,69792.00
2018-05-27T09:11:32.023Z,72224.00
2018-05-27T09:12:31.869Z,68128.00
2018-05-27T09:13:31.769Z,83744.00
2018-05-27T09:14:31.769Z,93792.00
2018-05-27T09:15:31.750Z,103296.00
2018-05-27T09:16:31.732Z,83200.00
2018-05-27T09:17:31.744Z,92384.00
2018-05-27T09:18:31.730Z,93536.00
2018-05-27T09:19:31.692Z,94304.00
2018-05-27T09:20:31.662Z,97696.00
2018-05-27T09:21:31.678Z,96256.00
2018-05-27T09:22:31.619Z,94848.00
2018-05-27T09:23:31.649Z,96448.00
2018-05-27T09:24:31.585Z,105824.00
2018-05-27T09:25:31.581Z,110944.00
2018-05-27T09:26:31.674Z,102080.00
2018-05-27T09:27:31.530Z,98304.00
2018-05-27T09:28:31.540Z,83552.00
2018-05-27T09:29:31.486Z,94048.00
2018-05-27T09:30:31.546Z,113792.00
2018-05-27T09:31:31.446Z,109824.00
2018-05-27T09:32:31.449Z,102752.00
2018-05-27T09:33:31.421Z,108384.00
2018-05-27T09:34:31.406Z,116704.00
2018-05-27T09:35:31.374Z,113312.00
2018-05-27T09:36:31.373Z,108320.00
2018-05-27T09:37:31.339Z,113312.00
2018-05-27T09:38:31.330Z,113824.00
2018-05-27T09:39:31.308Z,115072.00
2018-05-27T09:40:31.296Z,110208.00
2018-05-27T09:41:31.267Z,111104.00
2018-05-27T09:42:31.250Z,101024.00
2018-05-27T09:43:31.260Z,104448.00
2018-05-27T09:44:31.227Z,117664.00
2018-05-27T09:45:31.260Z,123904.00
2018-05-27T09:46:31.173Z,120000.00
2018-05-27T09:47:31.163Z,113312.00
2018-05-27T09:48:31.157Z,116064.00
2018-05-27T09:49:31.134Z,118752.00
2018-05-27T09:50:31.117Z,119488.00
2018-05-27T09:51:31.125Z,127648.00
2018-05-27T09:52:31.074Z,111744.00
2018-05-27T09:53:31.054Z,111328.00
2018-05-27T09:54:31.079Z,74688.00
2018-05-27T09:55:31.021Z,117792.00
2018-05-27T09:56:30.999Z,96224.00
2018-05-27T09:57:31.015Z,83296.00
2018-05-27T09:58:31.047Z,101696.00
2018-05-27T09:59:30.953Z,65056.00
2018-05-27T10:00:30.952Z,79872.00
2018-05-27T10:01:30.911Z,87744.00
2018-05-27T10:02:30.893Z,97760.00
2018-05-27T10:03:30.883Z,86848.00
2018-05-27T10:04:30.862Z,94720.00
2018-05-27T10:05:30.842Z,118272.00
2018-05-27T10:06:30.835Z,99456.00
2018-05-27T10:07:30.807Z,106304.00
2018-05-27T10:08:30.799Z,105728.00
2018-05-27T10:09:30.821Z,118304.00
2018-05-27T10:10:30.748Z,123744.00
2018-05-27T10:11:30.746Z,108352.00
2018-05-27T10:12:30.719Z,107392.00
2018-05-27T10:13:30.699Z,116736.00
2018-05-27T10:14:30.696Z,137760.00
2018-05-27T10:15:30.660Z,138720.00
2018-05-27T10:16:30.647Z,124512.00
2018-05-27T10:17:30.639Z,110944.00
2018-05-27T10:18:30.608Z,104448.00
2018-05-27T10:19:30.596Z,118816.00
2018-05-27T10:20:30.597Z,122176.00
2018-05-27T10:21:30.564Z,105312.00
2018-05-27T10:22:30.543Z,106720.00
2018-05-27T10:23:30.523Z,121728.00
2018-05-27T10:24:30.508Z,122880.00
2018-05-27T10:25:30.492Z,116960.00
2018-05-27T10:26:30.467Z,125088.00
2018-05-27T10:27:30.449Z,129888.00
2018-05-27T10:28:30.439Z,131424.00
2018-05-27T10:29:30.437Z,130400.00
2018-05-27T10:30:30.396Z,118336.00
2018-05-27T10:31:30.378Z,113152.00
2018-05-27T10:32:30.360Z,115104.00
2018-05-27T10:33:30.328Z,118944.00
2018-05-27T10:34:30.332Z,112384.00
2018-05-27T10:35:30.299Z,105760.00
2018-05-27T10:36:30.276Z,112096.00
2018-05-27T10:37:30.262Z,117792.00
2018-05-27T10:38:30.271Z,113120.00
2018-05-27T10:39:30.225Z,110208.00
2018-05-27T10:40:30.229Z,114016.00
2018-05-27T10:41:30.183Z,108800.00
2018-05-27T10:42:30.171Z,110016.00
2018-05-27T10:43:30.228Z,112960.00
2018-05-27T10:44:30.160Z,104160.00
2018-05-27T10:45:30.114Z,105984.00
2018-05-27T10:46:30.114Z,106880.00
2018-05-27T10:47:30.101Z,100896.00
2018-05-27T10:48:30.068Z,98240.00
2018-05-27T10:49:30.036Z,103424.00
2018-05-27T10:50:30.032Z,114208.00
2018-05-27T10:51:30.017Z,121824.00
2018-05-27T10:52:30.000Z,122176.00
2018-05-27T10:53:29.970Z,121632.00
2018-05-27T10:54:29.966Z,115904.00
2018-05-27T10:55:29.951Z,101600.00
2018-05-27T10:56:29.919Z,93984.00
2018-05-27T10:57:29.914Z,101888.00
2018-05-27T10:58:29.906Z,107136.00
2018-05-27T10:59:29.885Z,101120.00
2018-05-27T11:00:29.856Z,105600.00
2018-05-27T11:01:29.831Z,117280.00
2018-05-27T11:02:29.801Z,112896.00
2018-05-27T11:03:29.806Z,97440.00
2018-05-27T11:04:29.778Z,96416.00
2018-05-27T11:05:29.738Z,110368.00
2018-05-27T11:06:29.719Z,122496.00
2018-05-27T11:07:29.715Z,112512.00
2018-05-27T11:08:29.729Z,106272.00
2018-05-27T11:09:29.690Z,106016.00
2018-05-27T11:10:29.663Z,106720.00
2018-05-27T11:11:29.661Z,116288.00
2018-05-27T11:12:29.618Z,116672.00
2018-05-27T11:13:29.606Z,113600.00
2018-05-27T11:14:29.573Z,119680.00
2018-05-27T11:15:29.556Z,115520.00
2018-05-27T11:16:29.539Z,100800.00
2018-05-27T11:17:29.537Z,103936.00
2018-05-27T11:18:29.515Z,112736.00
2018-05-27T11:19:29.499Z,115744.00
2018-05-27T11:20:29.467Z,116288.00
2018-05-27T11:21:29.443Z,130656.00
2018-05-27T11:22:29.440Z,140512.00
2018-05-27T11:23:29.422Z,146304.00
2018-05-27T11:24:29.392Z,142656.00
2018-05-27T11:25:29.383Z,82176.00
2018-05-27T11:26:29.348Z,59392.00
2018-05-27T11:27:29.344Z,111360.00
2018-05-27T11:28:29.303Z,132160.00
2018-05-27T11:29:29.291Z,135040.00
2018-05-27T11:30:29.279Z,131008.00
2018-05-27T11:31:29.244Z,117120.00
2018-05-27T11:32:29.249Z,78720.00
2018-05-27T11:33:29.237Z,96640.00
2018-05-27T11:34:29.195Z,75552.00
2018-05-27T11:35:29.202Z,85120.00
2018-05-27T11:36:29.161Z,88928.00
2018-05-27T11:37:29.135Z,92224.00
2018-05-27T11:38:29.112Z,133344.00
2018-05-27T11:39:29.106Z,99744.00
2018-05-27T11:40:29.075Z,106784.00
2018-05-27T11:41:29.080Z,61888.00
2018-05-27T11:42:29.052Z,54464.00
2018-05-27T11:43:29.027Z,51552.00
2018-05-27T11:44:29.013Z,56928.00
2018-05-27T11:45:29.012Z,43840.00
2018-05-27T11:46:28.964Z,38048.00
2018-05-27T11:47:28.967Z,36192.00
2018-05-27T11:48:28.933Z,34144.00
2018-05-27T11:49:28.904Z,34496.00
2018-05-27T11:50:28.902Z,35616.00
2018-05-27T11:51:28.874Z,36480.00
2018-05-27T11:52:28.880Z,36864.00
2018-05-27T11:53:28.842Z,37216.00
2018-05-27T11:54:28.829Z,37024.00
2018-05-27T11:55:28.820Z,36672.00
2018-05-27T11:56:28.777Z,36448.00
2018-05-27T11:57:28.747Z,36352.00
2018-05-27T11:58:28.724Z,37504.00
2018-05-27T11:59:28.730Z,39360.00
2018-05-27T12:00:28.680Z,42528.00
2018-05-27T12:01:28.666Z,40864.00
2018-05-27T12:02:28.633Z,39296.00
2018-05-27T12:03:28.619Z,39264.00
2018-05-27T12:04:28.600Z,38432.00
2018-05-27T12:05:28.574Z,32224.00
2018-05-27T12:06:28.548Z,27520.00
2018-05-27T12:07:28.537Z,23872.00
2018-05-27T12:08:28.506Z,20672.00
2018-05-27T12:09:28.619Z,17984.00
2018-05-27T12:10:28.479Z,15700.00
2018-05-27T12:11:28.477Z,14076.00
2018-05-27T12:12:28.436Z,12864.00
2018-05-27T12:13:28.402Z,11900.00
2018-05-27T12:14:28.375Z,11092.00
2018-05-27T12:15:28.356Z,10352.00
2018-05-27T12:16:28.340Z,9668.00
2018-05-27T12:17:28.316Z,9052.00
2018-05-27T12:18:28.317Z,8496.00
2018-05-27T12:19:28.285Z,7996.00
2018-05-27T12:20:28.252Z,7544.00
2018-05-27T12:21:28.247Z,7132.00
2018-05-27T12:22:28.203Z,6764.00
2018-05-27T12:23:28.211Z,6428.00
2018-05-27T12:24:28.181Z,6124.00